KHLG/HLG METAR and TAF weather

Enter ICAO airport designator
Station Type Date Time Source
KHLG METAR 2021/04/13 06:53 UTC NOAA

KHLG 130653Z AUTO 19003KT 7SM BKN050 OVC070 10/10 A2997 RMK AO2 RAB10E33 SLP152 P0000 T01000100


Station Type Date Time Source
KHLG Decoded METAR 2021/04/13 06:53 UTC NOAA

WHEELING OHIO COUNTY AIRPORT, WV, United States (KHLG) 40-10N 080-39W 372M
Apr 13, 2021 - 02:53 AM EDT / 2021.04.13 0653 UTC
Wind: from the S (190 degrees) at 3 MPH (3 KT):0
Visibility: 7 mile(s):0
Sky conditions: overcast
Precipitation last hour: A trace
Temperature: 50.0 F (10.0 C)
Dew Point: 50.0 F (10.0 C)
Relative Humidity: 100%
Pressure (altimeter): 29.97 in. Hg (1014 hPa)
ob: KHLG 130653Z AUTO 19003KT 7SM BKN050 OVC070 10/10 A2997 RMK AO2 RAB10E33 SLP152 P0000 T01000100
cycle: 7

Station Type Date Time Source
KHLG TAF 2021/04/13 06:22 UTC NOAA

TAF KHLG 130520Z 1306/1406 00000KT P6SM -RA OVC060
FM130900 VRB03KT P6SM SCT060
TEMPO 1310/1312 2SM BR SCT003
FM131400 24004KT P6SM SKC

Example: see airport list